This is the latest recevied weather packets stored in our database for station/object KG7DQI-13. If no packets are shown the sender has not sent any weather packets the latest 10 day(s).
| Time | Temp. | Humidity | Pressure | Rain* | Wind** | Luminosity | Snow |
|---|---|---|---|---|---|---|---|
| 1788193811 | 16.67° C | 44% | 913 hPa | 0 mm | - | 114 W/m² | - |
| 1788192914 | 16.11° C | 45% | 913 hPa | 0 mm | - | 403 W/m² | - |
| 1788192047 | 15° C | 46% | 913.8 hPa | 0 mm | - | 360 W/m² | - |
| 1788191111 | 13.33° C | 51% | 913.6 hPa | 0 mm | - | 320 W/m² | - |
| 1788190225 | 12.78° C | 52% | 913.6 hPa | 0 mm | - | 272 W/m² | - |
| 1788186609 | 3.33° C | 71% | 913.2 hPa | 0 mm | - | 95 W/m² | - |
| 1788184825 | 1.67° C | 71% | 913.4 hPa | 0 mm | - | 21 W/m² | - |
| 1788182164 | 2.22° C | 69% | 913.3 hPa | 0 mm | - | 0 W/m² | - |
| 1788181268 | 2.22° C | 73% | 913.2 hPa | 0 mm | - | 0 W/m² | - |
| 1788179490 | 2.22° C | 68% | 913.4 hPa | 0 mm | - | 0 W/m² | - |
| 1788178620 | 2.78° C | 71% | 913.5 hPa | 0 mm | - | 0 W/m² | - |
| 1788175840 | 3.33° C | 65% | 913.5 hPa | 0 mm | - | 0 W/m² | - |
| 1788174965 | 3.89° C | 66% | 913.6 hPa | 0 mm | - | 0 W/m² | - |
| 1788174029 | 3.89° C | 65% | 913.7 hPa | 0 mm | - | 0 W/m² | - |
| 1788173148 | 3.89° C | 63% | 913.6 hPa | 0 mm | - | 0 W/m² | - |
| 1788172234 | 3.89° C | 62% | 913.5 hPa | 0 mm | - | 0 W/m² | - |
| 1788171356 | 3.89° C | 63% | 913.6 hPa | 0 mm | - | 0 W/m² | - |
| 1788170437 | 4.44° C | 60% | 913.6 hPa | 0 mm | - | 0 W/m² | - |
| 1788169504 | 4.44° C | 60% | 913.8 hPa | 0 mm | - | 0 W/m² | - |
| 1788167662 | 5.56° C | 58% | 914 hPa | 0 mm | - | 0 W/m² | - |
| 1788164873 | 6.11° C | 57% | 914.1 hPa | 0 mm | - | 0 W/m² | - |
| 1788164011 | 6.67° C | 55% | 914.1 hPa | 0 mm | - | 0 W/m² | - |
| 1788163102 | 6.67° C | 57% | 914.3 hPa | 0 mm | - | 0 W/m² | - |
| 1788162203 | 7.22° C | 54% | 914.3 hPa | 0 mm | - | 0 W/m² | - |
| 1788160367 | 7.78° C | 55% | 914.3 hPa | 0 mm | - | 0 W/m² | - |
* Rain latest hour (hover to see other rain measurements)
** Current wind speed in m/s (hover to see current wind gust speed)